createdAt,value
2023-05-05T00:00:00.010Z,9.68
2023-05-05T00:02:28.102Z,9.71
2023-05-05T00:04:57.252Z,9.69
2023-05-05T00:07:25.234Z,9.64
2023-05-05T00:09:54.469Z,9.62
2023-05-05T00:12:22.399Z,9.59
2023-05-05T00:14:50.372Z,9.58
2023-05-05T00:17:18.260Z,9.58
2023-05-05T00:19:46.185Z,9.53
2023-05-05T00:22:14.021Z,9.60
2023-05-05T00:24:42.015Z,9.57
2023-05-05T00:27:11.838Z,9.55
2023-05-05T00:29:39.599Z,9.52
2023-05-05T00:32:07.486Z,9.54
2023-05-05T00:34:35.369Z,9.53
2023-05-05T00:37:04.173Z,9.50
2023-05-05T00:39:33.264Z,9.52
2023-05-05T00:42:01.346Z,9.51
2023-05-05T00:44:40.345Z,9.48
2023-05-05T00:47:09.466Z,9.49
2023-05-05T00:49:38.187Z,9.47
2023-05-05T00:52:07.579Z,9.45
2023-05-05T00:54:35.849Z,9.45
2023-05-05T00:57:04.179Z,9.45
2023-05-05T00:59:34.047Z,9.40
2023-05-05T01:02:03.555Z,9.35
2023-05-05T01:04:31.404Z,9.38
2023-05-05T01:07:16.319Z,9.36
2023-05-05T01:10:17.959Z,9.31
2023-05-05T01:12:52.896Z,9.31
2023-05-05T01:15:28.312Z,9.26
2023-05-05T01:18:04.988Z,9.30
2023-05-05T01:20:41.932Z,9.27
2023-05-05T01:23:17.932Z,9.22
2023-05-05T01:26:14.233Z,9.18
2023-05-05T01:29:04.468Z,9.16
2023-05-05T01:31:51.880Z,9.13
2023-05-05T01:34:24.630Z,9.10
2023-05-05T01:36:59.423Z,9.06
2023-05-05T01:39:32.564Z,9.07
2023-05-05T01:42:06.186Z,9.02
2023-05-05T01:44:36.212Z,9.05
2023-05-05T01:47:07.583Z,9.00
2023-05-05T01:49:37.918Z,8.96
2023-05-05T01:52:08.313Z,8.92
2023-05-05T01:54:43.384Z,8.96
2023-05-05T01:57:12.567Z,8.88
2023-05-05T01:59:41.103Z,8.84
2023-05-05T02:02:12.358Z,8.84
2023-05-05T02:04:44.978Z,8.81
2023-05-05T02:07:14.219Z,8.79
2023-05-05T02:09:45.645Z,8.72
2023-05-05T02:12:14.233Z,8.67
2023-05-05T02:14:45.345Z,8.68
2023-05-05T02:17:16.211Z,8.62
2023-05-05T02:19:46.896Z,8.61
2023-05-05T02:22:16.864Z,8.59
2023-05-05T02:24:45.656Z,8.57
2023-05-05T02:27:17.189Z,8.56
2023-05-05T02:29:49.447Z,8.55
2023-05-05T02:32:23.659Z,8.53
2023-05-05T02:34:54.138Z,8.50
2023-05-05T02:37:25.963Z,8.47
2023-05-05T02:39:59.396Z,8.46
2023-05-05T02:42:30.303Z,8.37
2023-05-05T02:45:03.368Z,8.38
2023-05-05T02:47:45.334Z,8.33
2023-05-05T02:50:13.374Z,8.30
2023-05-05T02:52:50.417Z,8.29
2023-05-05T02:55:18.308Z,8.24
2023-05-05T02:57:50.922Z,8.22
2023-05-05T03:00:25.431Z,8.20
2023-05-05T03:03:02.339Z,8.21
2023-05-05T03:05:38.743Z,8.18
2023-05-05T03:08:12.079Z,8.16
2023-05-05T03:10:48.921Z,8.18
2023-05-05T03:13:19.675Z,8.17
2023-05-05T03:15:50.928Z,8.21
2023-05-05T03:18:23.595Z,8.20
2023-05-05T03:20:52.668Z,8.15
2023-05-05T03:23:22.815Z,8.11
2023-05-05T03:25:51.974Z,8.10
2023-05-05T03:28:19.753Z,8.04
2023-05-05T03:30:47.606Z,8.02
2023-05-05T03:33:16.802Z,7.99
2023-05-05T03:35:46.193Z,7.95
2023-05-05T03:38:14.063Z,7.93
2023-05-05T03:40:44.825Z,7.89
2023-05-05T03:43:13.114Z,7.89
2023-05-05T03:45:41.206Z,7.85
2023-05-05T03:48:10.111Z,7.92
2023-05-05T03:50:37.994Z,7.94
2023-05-05T03:53:07.290Z,7.97
2023-05-05T03:55:35.253Z,7.96
2023-05-05T03:58:03.517Z,8.04
2023-05-05T04:00:31.695Z,8.07
2023-05-05T04:02:59.739Z,8.07
2023-05-05T04:05:27.920Z,8.11
2023-05-05T04:07:58.007Z,8.13
2023-05-05T04:10:27.875Z,8.16
2023-05-05T04:12:56.491Z,8.20
2023-05-05T04:15:24.474Z,8.23
2023-05-05T04:17:52.525Z,8.29
2023-05-05T04:20:20.593Z,8.31
2023-05-05T04:22:49.399Z,8.35
2023-05-05T04:25:19.520Z,8.39
2023-05-05T04:27:48.765Z,8.46
2023-05-05T04:30:16.671Z,8.56
2023-05-05T04:32:44.649Z,8.68
2023-05-05T04:35:12.627Z,8.74
2023-05-05T04:37:40.543Z,8.85
2023-05-05T04:40:10.549Z,8.91
2023-05-05T04:42:38.406Z,9.05
2023-05-05T04:45:09.691Z,9.22
2023-05-05T04:47:40.833Z,9.46
2023-05-05T04:50:09.932Z,9.69
2023-05-05T04:52:38.086Z,9.94
2023-05-05T04:55:06.946Z,10.33
2023-05-05T04:57:34.696Z,10.75
2023-05-05T05:00:04.582Z,11.60
2023-05-05T05:02:34.032Z,12.65
2023-05-05T05:05:02.047Z,13.69
2023-05-05T05:07:30.113Z,14.80
2023-05-05T05:09:58.038Z,15.39
2023-05-05T05:12:26.063Z,15.88
2023-05-05T05:14:55.096Z,16.23
2023-05-05T05:17:24.100Z,16.17
2023-05-05T05:19:54.418Z,16.39
2023-05-05T05:22:23.129Z,16.74
2023-05-05T05:24:52.296Z,17.00
2023-05-05T05:27:20.703Z,17.00
2023-05-05T05:29:48.660Z,16.59
2023-05-05T05:32:16.655Z,17.22
2023-05-05T05:34:44.856Z,16.12
2023-05-05T05:37:14.462Z,15.63
2023-05-05T05:39:43.481Z,15.09
2023-05-05T05:42:11.662Z,14.93
2023-05-05T05:44:39.511Z,14.79
2023-05-05T05:47:07.333Z,15.00
2023-05-05T05:49:35.232Z,14.93
2023-05-05T05:52:03.135Z,15.51
2023-05-05T05:54:34.353Z,16.56
2023-05-05T05:57:02.492Z,17.14
2023-05-05T05:59:30.816Z,17.90
2023-05-05T06:01:58.800Z,18.08
2023-05-05T06:04:26.695Z,18.35
2023-05-05T06:06:54.705Z,18.98
2023-05-05T06:09:22.596Z,19.39
2023-05-05T06:11:52.070Z,18.81
2023-05-05T06:14:20.195Z,19.17
2023-05-05T06:16:48.413Z,19.85
2023-05-05T06:19:16.260Z,19.09
2023-05-05T06:21:43.986Z,19.48
2023-05-05T06:24:12.089Z,19.61
2023-05-05T06:26:39.938Z,19.65
2023-05-05T06:29:11.028Z,20.14
2023-05-05T06:31:40.144Z,19.84
2023-05-05T06:34:08.192Z,20.84
2023-05-05T06:36:39.323Z,20.74
2023-05-05T06:39:07.235Z,20.73
2023-05-05T06:41:35.166Z,21.73
2023-05-05T06:44:03.793Z,21.16
2023-05-05T06:46:33.058Z,20.48
2023-05-05T06:49:01.020Z,19.82
2023-05-05T06:51:28.844Z,19.26
2023-05-05T06:53:56.652Z,19.59
2023-05-05T06:56:24.650Z,20.16
2023-05-05T06:58:52.513Z,20.76
2023-05-05T07:01:20.425Z,21.22
2023-05-05T07:03:49.893Z,21.73
2023-05-05T07:06:17.918Z,21.81
2023-05-05T07:08:45.805Z,21.93
2023-05-05T07:11:13.700Z,21.71
2023-05-05T07:13:41.538Z,22.19
2023-05-05T07:16:09.475Z,21.70
2023-05-05T07:18:38.424Z,22.79
2023-05-05T07:21:07.722Z,22.45
2023-05-05T07:23:37.346Z,22.48
2023-05-05T07:26:05.346Z,22.59
2023-05-05T07:28:33.211Z,22.58
2023-05-05T07:31:01.282Z,22.47
2023-05-05T07:33:29.264Z,22.18
2023-05-05T07:35:57.266Z,22.23
2023-05-05T07:38:26.682Z,21.76
2023-05-05T07:40:54.543Z,22.13
2023-05-05T07:43:22.453Z,22.09
2023-05-05T07:45:50.353Z,22.47
2023-05-05T07:48:18.281Z,22.98
2023-05-05T07:50:46.240Z,23.20
2023-05-05T07:53:15.495Z,23.15
2023-05-05T07:55:44.720Z,22.31
2023-05-05T07:58:12.643Z,22.56
2023-05-05T08:00:40.879Z,22.37
2023-05-05T08:03:11.686Z,22.72
2023-05-05T08:05:40.527Z,22.15
2023-05-05T08:08:08.488Z,21.93
2023-05-05T08:10:37.259Z,21.59
2023-05-05T08:13:06.645Z,21.06
2023-05-05T08:15:34.514Z,20.26
2023-05-05T08:18:02.519Z,19.81
2023-05-05T08:20:30.942Z,19.72
2023-05-05T08:22:58.821Z,19.99
2023-05-05T08:25:27.514Z,20.23
2023-05-05T08:27:55.662Z,19.89
2023-05-05T08:30:25.084Z,20.05
2023-05-05T08:32:53.007Z,20.20
2023-05-05T08:35:21.194Z,19.87
2023-05-05T08:37:49.135Z,19.36
2023-05-05T08:40:16.897Z,19.09
2023-05-05T08:42:46.406Z,19.24
2023-05-05T08:45:14.371Z,19.36
2023-05-05T08:47:44.756Z,19.33
2023-05-05T08:50:13.654Z,19.23
2023-05-05T08:52:44.796Z,18.98
2023-05-05T08:55:19.365Z,19.19
2023-05-05T08:57:52.674Z,19.42
2023-05-05T09:00:21.875Z,19.42
2023-05-05T09:02:51.673Z,19.07
2023-05-05T09:05:19.879Z,19.05
2023-05-05T09:07:47.832Z,18.96
2023-05-05T09:10:15.879Z,19.19
2023-05-05T09:12:44.064Z,18.83
2023-05-05T09:15:13.777Z,18.96
2023-05-05T09:17:42.974Z,19.25
2023-05-05T09:20:13.696Z,19.58
2023-05-05T09:22:46.720Z,19.85
2023-05-05T09:25:15.589Z,19.46
2023-05-05T09:27:45.853Z,19.52
2023-05-05T09:30:16.681Z,19.56
2023-05-05T09:32:48.841Z,19.49
2023-05-05T09:35:19.677Z,19.71
2023-05-05T09:37:50.813Z,19.73
2023-05-05T09:40:21.396Z,19.91
2023-05-05T09:42:49.554Z,19.71
2023-05-05T09:45:27.870Z,19.68
2023-05-05T09:47:59.661Z,19.69
2023-05-05T09:50:32.698Z,19.97
2023-05-05T09:53:01.999Z,20.15
2023-05-05T09:55:31.057Z,20.40
2023-05-05T09:58:17.801Z,20.52
2023-05-05T10:00:45.993Z,20.25
2023-05-05T10:03:14.011Z,20.22
2023-05-05T10:05:51.963Z,20.28
2023-05-05T10:08:21.860Z,20.38
2023-05-05T10:10:57.675Z,20.39
2023-05-05T10:13:26.180Z,20.67
2023-05-05T10:15:58.288Z,20.60
2023-05-05T10:18:30.476Z,20.79
2023-05-05T10:21:01.786Z,20.58
2023-05-05T10:23:37.458Z,20.63
2023-05-05T10:26:08.745Z,20.42
2023-05-05T10:28:45.072Z,20.11
2023-05-05T10:31:25.791Z,20.34
2023-05-05T10:33:56.498Z,20.16
2023-05-05T10:36:26.461Z,20.41
2023-05-05T10:38:57.475Z,20.31
2023-05-05T10:41:26.338Z,20.63
2023-05-05T10:43:57.237Z,20.82
2023-05-05T10:46:26.205Z,20.59
2023-05-05T10:49:01.031Z,20.15
2023-05-05T10:51:41.673Z,20.09
2023-05-05T10:54:15.007Z,20.48
2023-05-05T10:56:43.950Z,20.42
2023-05-05T10:59:48.888Z,20.26
2023-05-05T11:02:27.197Z,20.34
2023-05-05T11:05:09.511Z,20.49
2023-05-05T11:07:39.045Z,20.85
2023-05-05T11:10:08.195Z,20.83
2023-05-05T11:13:05.953Z,21.09
2023-05-05T11:15:38.573Z,21.23
2023-05-05T11:18:08.378Z,21.42
2023-05-05T11:21:05.499Z,21.20
2023-05-05T11:23:35.286Z,20.94
2023-05-05T11:26:06.568Z,20.75
2023-05-05T11:28:34.616Z,20.43
2023-05-05T11:31:19.697Z,20.64
2023-05-05T11:33:48.136Z,20.50
2023-05-05T11:36:17.876Z,20.40
2023-05-05T11:39:02.804Z,20.50
2023-05-05T11:42:14.071Z,20.43
2023-05-05T11:44:42.613Z,20.87
2023-05-05T11:47:30.570Z,20.58
2023-05-05T11:49:58.714Z,20.73
2023-05-05T11:52:28.424Z,20.88
2023-05-05T11:55:02.336Z,20.80
2023-05-05T11:57:31.475Z,20.74
2023-05-05T12:00:01.671Z,20.89
2023-05-05T12:02:31.414Z,20.74
2023-05-05T12:05:00.961Z,20.76
2023-05-05T12:07:30.482Z,20.79
2023-05-05T12:10:06.595Z,21.03
2023-05-05T12:12:36.661Z,21.00
2023-05-05T12:15:05.617Z,20.54
2023-05-05T12:17:42.728Z,20.47
2023-05-05T12:20:12.315Z,20.66
2023-05-05T12:22:40.819Z,20.63
2023-05-05T12:25:11.131Z,20.77
2023-05-05T12:27:40.518Z,20.88
2023-05-05T12:30:16.803Z,21.14
2023-05-05T12:32:45.733Z,20.91
2023-05-05T12:35:14.755Z,20.86
2023-05-05T12:37:44.567Z,20.75
2023-05-05T12:40:45.747Z,21.01
2023-05-05T12:43:30.632Z,20.84
2023-05-05T12:46:06.422Z,20.79
2023-05-05T12:48:34.993Z,20.89
2023-05-05T12:51:13.939Z,20.84
2023-05-05T12:53:41.845Z,20.63
2023-05-05T12:56:31.067Z,20.75
2023-05-05T12:59:00.998Z,20.88
2023-05-05T13:01:29.213Z,20.97
2023-05-05T13:04:10.068Z,20.88
2023-05-05T13:06:38.803Z,20.64
2023-05-05T13:09:07.572Z,20.53
2023-05-05T13:11:42.320Z,20.60
2023-05-05T13:14:11.685Z,20.58
2023-05-05T13:16:39.805Z,20.62
2023-05-05T13:19:07.711Z,20.52
2023-05-05T13:21:35.507Z,20.77
2023-05-05T13:24:19.097Z,20.68
2023-05-05T13:26:52.061Z,20.63
2023-05-05T13:29:23.585Z,20.54
2023-05-05T13:31:54.584Z,20.76
2023-05-05T13:34:22.527Z,20.82
2023-05-05T13:36:50.595Z,20.70
2023-05-05T13:39:18.470Z,20.82
2023-05-05T13:41:46.267Z,20.76
2023-05-05T13:44:14.855Z,20.77
2023-05-05T13:46:44.267Z,20.75
2023-05-05T13:49:12.265Z,20.64
2023-05-05T13:51:40.115Z,20.72
2023-05-05T13:54:08.528Z,20.64
2023-05-05T13:56:36.500Z,20.69
2023-05-05T13:59:04.290Z,20.79
2023-05-05T14:01:32.440Z,20.76
2023-05-05T14:04:04.521Z,20.63
2023-05-05T14:06:33.849Z,20.81
2023-05-05T14:09:05.642Z,20.94
2023-05-05T14:11:33.601Z,20.80
2023-05-05T14:14:01.642Z,20.91
2023-05-05T14:16:29.614Z,21.05
2023-05-05T14:18:57.540Z,20.99
2023-05-05T14:21:27.662Z,20.86
2023-05-05T14:23:55.782Z,20.92
2023-05-05T14:26:23.625Z,20.84
2023-05-05T14:28:51.566Z,20.81
2023-05-05T14:31:27.370Z,20.60
2023-05-05T14:33:55.254Z,20.64
2023-05-05T14:36:23.570Z,20.61
2023-05-05T14:38:52.862Z,20.65
2023-05-05T14:41:21.156Z,20.77
2023-05-05T14:43:54.237Z,20.84
2023-05-05T14:46:22.136Z,20.69
2023-05-05T14:48:50.059Z,20.84
2023-05-05T14:51:22.118Z,20.71
2023-05-05T14:53:51.175Z,20.81
2023-05-05T14:56:21.867Z,20.63
2023-05-05T14:58:49.835Z,20.56
2023-05-05T15:01:17.818Z,20.52
2023-05-05T15:03:46.244Z,20.43
2023-05-05T15:06:14.213Z,20.42
2023-05-05T15:08:42.010Z,20.28
2023-05-05T15:11:09.981Z,20.09
2023-05-05T15:13:41.358Z,20.06
2023-05-05T15:16:09.671Z,20.15
2023-05-05T15:18:37.726Z,20.23
2023-05-05T15:21:05.834Z,20.09
2023-05-05T15:23:33.704Z,20.00
2023-05-05T15:26:01.771Z,20.01
2023-05-05T15:28:29.712Z,20.04
2023-05-05T15:31:03.312Z,19.83
2023-05-05T15:33:33.617Z,19.78
2023-05-05T15:36:01.510Z,19.67
2023-05-05T15:38:30.643Z,19.59
2023-05-05T15:40:58.437Z,19.51
2023-05-05T15:43:26.480Z,19.48
2023-05-05T15:45:55.120Z,19.48
2023-05-05T15:48:24.388Z,19.47
2023-05-05T15:50:52.254Z,19.47
2023-05-05T15:53:20.212Z,19.52
2023-05-05T15:55:48.051Z,19.50
2023-05-05T15:58:18.621Z,19.53
2023-05-05T16:00:46.491Z,19.53
2023-05-05T16:03:14.386Z,19.56
2023-05-05T16:05:43.712Z,19.61
2023-05-05T16:08:11.647Z,19.39
2023-05-05T16:10:39.587Z,19.39
2023-05-05T16:13:07.543Z,19.34
2023-05-05T16:15:35.852Z,19.37
2023-05-05T16:18:03.924Z,19.35
2023-05-05T16:20:31.869Z,19.37
2023-05-05T16:23:01.034Z,19.25
2023-05-05T16:25:28.958Z,19.17
2023-05-05T16:27:57.571Z,19.13
2023-05-05T16:30:25.965Z,19.13
2023-05-05T16:32:54.641Z,19.07
2023-05-05T16:35:26.572Z,19.07
2023-05-05T16:37:54.721Z,19.09
2023-05-05T16:40:26.793Z,19.04
2023-05-05T16:42:54.694Z,18.96
2023-05-05T16:45:22.584Z,18.91
2023-05-05T16:47:50.496Z,18.87
2023-05-05T16:50:18.463Z,18.82
2023-05-05T16:52:46.388Z,18.67
2023-05-05T16:55:14.489Z,18.65
2023-05-05T16:57:43.867Z,18.52
2023-05-05T17:00:12.634Z,18.43
2023-05-05T17:02:40.516Z,18.34
2023-05-05T17:05:09.810Z,18.17
2023-05-05T17:07:37.888Z,18.06
2023-05-05T17:10:06.817Z,17.96
2023-05-05T17:12:34.806Z,17.87
2023-05-05T17:15:04.246Z,17.80
2023-05-05T17:17:32.146Z,17.76
2023-05-05T17:20:01.080Z,17.69
2023-05-05T17:22:29.029Z,17.65
2023-05-05T17:24:56.978Z,17.57
2023-05-05T17:27:25.042Z,17.57
2023-05-05T17:29:53.671Z,17.58
2023-05-05T17:32:22.932Z,17.41
2023-05-05T17:34:50.762Z,17.39
2023-05-05T17:37:21.854Z,17.36
2023-05-05T17:39:50.186Z,17.34
2023-05-05T17:42:22.955Z,17.32
2023-05-05T17:44:51.266Z,17.27
2023-05-05T17:47:22.178Z,17.27
2023-05-05T17:49:53.788Z,17.25
2023-05-05T17:52:24.084Z,17.18
2023-05-05T17:54:55.279Z,17.19
2023-05-05T17:57:23.251Z,17.15
2023-05-05T17:59:53.225Z,17.13
2023-05-05T18:02:21.235Z,17.07
2023-05-05T18:04:49.223Z,17.01
2023-05-05T18:07:18.504Z,17.04
2023-05-05T18:09:46.424Z,16.95
2023-05-05T18:12:14.296Z,16.92
2023-05-05T18:14:42.171Z,16.83
2023-05-05T18:17:10.010Z,16.83
2023-05-05T18:19:39.021Z,16.81
2023-05-05T18:22:06.967Z,16.77
2023-05-05T18:24:36.159Z,16.67
2023-05-05T18:27:06.318Z,16.62
2023-05-05T18:29:35.163Z,16.59
2023-05-05T18:32:03.020Z,16.58
2023-05-05T18:34:31.241Z,16.56
2023-05-05T18:37:00.362Z,16.49
2023-05-05T18:39:31.422Z,16.44
2023-05-05T18:42:00.710Z,16.42
2023-05-05T18:44:28.726Z,16.41
2023-05-05T18:46:56.683Z,16.36
2023-05-05T18:49:24.999Z,16.32
2023-05-05T18:51:53.732Z,16.31
2023-05-05T18:54:21.951Z,16.26
2023-05-05T18:56:50.001Z,16.16
2023-05-05T18:59:19.286Z,16.18
2023-05-05T19:01:47.133Z,16.15
2023-05-05T19:07:09.322Z,16.01
2023-05-05T19:09:37.344Z,15.98
2023-05-05T19:12:05.755Z,15.98
2023-05-05T19:14:35.012Z,15.87
2023-05-05T19:17:03.108Z,15.90
2023-05-05T19:19:31.295Z,15.80
2023-05-05T19:21:59.951Z,15.75
2023-05-05T19:24:29.180Z,15.74
2023-05-05T19:26:57.191Z,15.65
2023-05-05T19:29:25.044Z,15.60
2023-05-05T19:31:54.349Z,15.57
2023-05-05T19:34:22.195Z,15.54
2023-05-05T19:36:50.387Z,15.56
2023-05-05T19:39:18.233Z,15.51
2023-05-05T19:41:46.496Z,15.45
2023-05-05T19:44:14.266Z,15.39
2023-05-05T19:46:44.516Z,15.39
2023-05-05T19:49:14.576Z,15.32
2023-05-05T19:51:43.841Z,15.34
2023-05-05T19:54:13.380Z,15.26
2023-05-05T19:56:41.252Z,15.21
2023-05-05T19:59:09.280Z,15.17
2023-05-05T20:01:37.204Z,15.13
2023-05-05T20:04:05.116Z,15.08
2023-05-05T20:06:35.846Z,15.10
2023-05-05T20:09:03.814Z,15.02
2023-05-05T20:11:32.164Z,14.99
2023-05-05T20:14:00.140Z,14.92
2023-05-05T20:16:28.095Z,14.89
2023-05-05T20:18:56.078Z,14.88
2023-05-05T20:21:24.166Z,14.87
2023-05-05T20:23:54.499Z,14.81
2023-05-05T20:26:22.604Z,14.76
2023-05-05T20:28:54.242Z,14.72
2023-05-05T20:31:22.247Z,14.68
2023-05-05T20:33:50.031Z,14.63
2023-05-05T20:36:19.377Z,14.63
2023-05-05T20:38:47.223Z,14.59
2023-05-05T20:41:16.622Z,14.53
2023-05-05T20:43:48.534Z,14.55
2023-05-05T20:46:16.636Z,14.50
2023-05-05T20:48:45.590Z,14.48
2023-05-05T20:51:13.431Z,14.40
2023-05-05T20:53:41.371Z,14.39
2023-05-05T20:56:09.393Z,14.34
2023-05-05T20:58:38.676Z,14.32
2023-05-05T21:01:06.657Z,14.29
2023-05-05T21:03:34.536Z,14.28
2023-05-05T21:06:03.020Z,14.24
2023-05-05T21:08:31.136Z,14.23
2023-05-05T21:10:58.964Z,14.21
2023-05-05T21:13:26.933Z,14.17
2023-05-05T21:15:56.288Z,14.12
2023-05-05T21:18:25.727Z,14.14
2023-05-05T21:20:53.574Z,14.07
2023-05-05T21:23:21.599Z,13.99
2023-05-05T21:25:49.649Z,13.96
2023-05-05T21:28:17.646Z,13.93
2023-05-05T21:30:54.921Z,13.87
2023-05-05T21:33:34.515Z,13.70
2023-05-05T21:36:02.439Z,13.59
2023-05-05T21:38:30.421Z,13.50
2023-05-05T21:40:58.988Z,13.43
2023-05-05T21:43:28.598Z,13.32
2023-05-05T21:46:00.786Z,13.26
2023-05-05T21:48:28.684Z,13.23
2023-05-05T21:50:58.460Z,13.19
2023-05-05T21:53:26.484Z,13.18
2023-05-05T21:55:54.556Z,13.20
2023-05-05T21:58:22.658Z,13.18
2023-05-05T22:00:50.730Z,13.08
2023-05-05T22:03:18.852Z,13.01
2023-05-05T22:05:47.224Z,12.87
2023-05-05T22:08:16.559Z,12.80
2023-05-05T22:10:44.508Z,12.69
2023-05-05T22:13:12.582Z,12.58
2023-05-05T22:15:46.688Z,12.57
2023-05-05T22:18:15.732Z,12.53
2023-05-05T22:20:44.026Z,12.52
2023-05-05T22:23:13.990Z,12.44
2023-05-05T22:25:44.373Z,12.37
2023-05-05T22:28:12.511Z,12.37
2023-05-05T22:30:40.651Z,12.26
2023-05-05T22:33:09.055Z,12.21
2023-05-05T22:35:38.245Z,12.15
2023-05-05T22:38:06.370Z,12.10
2023-05-05T22:40:34.297Z,12.00
2023-05-05T22:43:03.468Z,11.91
2023-05-05T22:45:31.330Z,11.81
2023-05-05T22:48:04.099Z,11.80
2023-05-05T22:50:32.055Z,11.76
2023-05-05T22:53:00.142Z,11.70
2023-05-05T22:55:27.980Z,11.67
2023-05-05T22:57:56.019Z,11.60
2023-05-05T23:00:28.393Z,11.54
2023-05-05T23:02:56.585Z,11.50
2023-05-05T23:05:24.810Z,11.38
2023-05-05T23:07:52.593Z,11.36
2023-05-05T23:10:20.344Z,11.24
2023-05-05T23:12:48.178Z,11.27
2023-05-05T23:15:16.252Z,11.22
2023-05-05T23:17:45.518Z,11.17
2023-05-05T23:20:14.145Z,11.16
2023-05-05T23:22:42.351Z,11.10
2023-05-05T23:25:11.302Z,11.10
2023-05-05T23:27:41.075Z,11.06
2023-05-05T23:30:10.273Z,10.99
2023-05-05T23:32:38.185Z,10.96
2023-05-05T23:35:08.844Z,10.93
2023-05-05T23:37:36.824Z,10.91
2023-05-05T23:40:05.357Z,10.90
2023-05-05T23:42:33.175Z,10.86
2023-05-05T23:45:01.360Z,10.82
2023-05-05T23:47:29.242Z,10.77
2023-05-05T23:49:58.442Z,10.74
2023-05-05T23:52:33.364Z,10.67
2023-05-05T23:55:01.228Z,10.66
2023-05-05T23:57:29.117Z,10.60
2023-05-05T23:59:56.863Z,10.60
